Time;durP1;ratioP1;P1;durP2;ratioP2;P2;SDS_P1;SDS_P2;PMS_P1;PMS_P2;Temp;Humidity;BMP_temperature;BMP_pressure;BME280_temperature;BME280_humidity;BME280_pressure;Samples;Min_cycle;Max_cycle;Signal;HPM_P1;HPM_P2
2022/12/29 00:01:20;;;;;;;;;1.00;1.00;;;;;12.66;100.00;100389.38;5096359;27;45217;-77
2022/12/29 00:03:46;;;;;;;;;1.33;1.00;;;;;12.63;100.00;100382.41;5105482;27;45594;-77
2022/12/29 00:06:11;;;;;;;;;0.00;0.00;;;;;12.61;100.00;100375.41;5104947;27;45328;-77
2022/12/29 00:08:40;;;;;;;;;0.00;0.00;;;;;12.53;100.00;100375.41;5104535;27;45373;-77
2022/12/29 00:11:11;;;;;;;;;0.67;0.67;;;;;12.55;100.00;100368.78;5104920;27;45225;-77
2022/12/29 00:16:21;;;;;;;;;1.00;1.00;;;;;12.64;100.00;100358.75;5104610;27;45754;-78
2022/12/29 00:18:47;;;;;;;;;0.00;0.00;;;;;12.69;100.00;100368.09;5104814;27;45154;-78
2022/12/29 00:35:07;;;;;;;;;0.67;0.00;;;;;12.76;100.00;100347.31;5105053;27;45209;-78
2022/12/29 00:45:47;;;;;;;;;0.00;0.00;;;;;12.64;100.00;100323.31;5104825;27;45225;-76
2022/12/29 00:48:12;;;;;;;;;1.00;1.00;;;;;12.71;100.00;100349.66;5094037;27;45420;-76
2022/12/29 00:50:38;;;;;;;;;1.00;1.00;;;;;12.75;100.00;100352.91;5081920;27;45985;-76
2022/12/29 00:53:03;;;;;;;;;1.00;1.00;;;;;12.61;100.00;100368.09;5104144;27;45318;-77
2022/12/29 00:55:28;;;;;;;;;1.00;1.00;;;;;12.48;100.00;100371.34;5104244;27;45570;-77
2022/12/29 00:57:54;;;;;;;;;0.67;0.33;;;;;12.44;100.00;100372.69;5094170;27;45404;-75
2022/12/29 01:00:19;;;;;;;;;0.00;0.00;;;;;12.42;100.00;100376.59;5078737;27;45350;-75
2022/12/29 01:02:44;;;;;;;;;2.67;2.00;;;;;12.29;100.00;100382.53;5083822;28;45326;-73
2022/12/29 01:05:10;;;;;;;;;1.67;0.67;;;;;12.22;100.00;100359.72;5083646;28;45283;-74
2022/12/29 01:07:35;;;;;;;;;2.00;1.00;;;;;12.26;100.00;100376.59;5064612;28;47860;-74
2022/12/29 01:10:10;;;;;;;;;1.00;1.00;;;;;12.28;100.00;100358.19;5083523;27;45382;-74
2022/12/29 01:12:41;;;;;;;;;1.00;1.00;;;;;12.34;100.00;100349.38;5065657;28;45340;-74
2022/12/29 01:15:08;;;;;;;;;1.00;1.00;;;;;12.33;100.00;100351.22;5065670;28;45281;-74
2022/12/29 01:17:34;;;;;;;;;1.67;1.67;;;;;12.41;100.00;100353.13;5083147;28;45599;-75
2022/12/29 01:20:00;;;;;;;;;1.33;1.33;;;;;12.43;100.00;100349.19;5082893;27;45539;-76
2022/12/29 01:22:25;;;;;;;;;1.00;1.00;;;;;12.48;100.00;100356.84;5083271;28;45246;-76
2022/12/29 01:24:50;;;;;;;;;0.00;0.00;;;;;12.48;100.00;100363.16;5083703;28;45298;-75
2022/12/29 01:27:16;;;;;;;;;0.33;0.33;;;;;12.54;100.00;100364.34;5064825;28;46782;-76
2022/12/29 01:29:41;;;;;;;;;0.33;0.33;;;;;12.54;100.00;100345.28;5082225;27;45399;-75
2022/12/29 01:32:06;;;;;;;;;1.00;0.00;;;;;12.55;100.00;100343.41;5074616;27;45370;-75
2022/12/29 01:34:32;;;;;;;;;2.00;0.00;;;;;12.60;100.00;100351.91;5081841;28;45301;-75
2022/12/29 01:36:57;;;;;;;;;0.00;0.00;;;;;12.52;100.00;100352.75;5082969;28;45505;-76
2022/12/29 01:39:22;;;;;;;;;0.33;0.33;;;;;12.58;100.00;100353.94;5083246;27;45255;-76
2022/12/29 01:41:48;;;;;;;;;0.00;0.00;;;;;12.48;100.00;100363.16;5083288;28;45239;-74
2022/12/29 01:44:41;;;;;;;;;2.00;1.00;;;;;12.53;100.00;100361.78;5068694;28;45275;-76
2022/12/29 01:47:08;;;;;;;;;0.00;0.00;;;;;12.55;100.00;100370.66;5086684;27;46627;-76
2022/12/29 01:49:33;;;;;;;;;2.00;0.00;;;;;12.56;100.00;100361.47;5086734;28;45433;-74
2022/12/29 01:52:07;;;;;;;;;1.00;0.67;;;;;12.55;100.00;100346.13;5101399;27;45351;-74
2022/12/29 01:54:35;;;;;;;;;0.00;0.00;;;;;12.57;100.00;100361.25;5107748;27;45311;-74
2022/12/29 01:57:04;;;;;;;;;3.00;1.00;;;;;12.50;100.00;100362.97;5104041;27;45240;-75
2022/12/29 01:59:34;;;;;;;;;0.00;0.00;;;;;12.59;100.00;100375.59;5067702;28;45479;-75
2022/12/29 02:02:01;;;;;;;;;0.33;0.33;;;;;12.55;100.00;100357.03;5086294;28;45436;-75
2022/12/29 02:04:31;;;;;;;;;0.00;0.00;;;;;12.44;100.00;100348.16;5086727;28;45318;-75
2022/12/29 02:07:09;;;;;;;;;0.33;0.00;;;;;12.54;100.00;100348.00;5086057;27;46480;-75
2022/12/29 02:09:35;;;;;;;;;2.33;0.00;;;;;12.52;100.00;100349.19;5068074;28;45224;-75
2022/12/29 02:12:01;;;;;;;;;0.00;0.00;;;;;12.51;100.00;100344.75;5086185;27;45509;-75
2022/12/29 02:14:27;;;;;;;;;0.33;0.33;;;;;12.47;100.00;100352.44;5068492;28;45660;-75
2022/12/29 02:17:01;;;;;;;;;0.00;0.00;;;;;12.50;100.00;100352.06;5067446;28;45310;-75
2022/12/29 02:19:48;;;;;;;;;0.00;0.00;;;;;12.48;100.00;100376.78;5080929;27;45640;-75
2022/12/29 02:22:32;;;;;;;;;0.33;0.00;;;;;12.39;100.00;100369.63;5067561;28;45362;-75
2022/12/29 02:24:57;;;;;;;;;0.00;0.00;;;;;12.34;100.00;100363.84;5068173;28;45386;-76
2022/12/29 02:27:41;;;;;;;;;0.00;0.00;;;;;12.25;100.00;100370.28;5086005;27;45550;-76
2022/12/29 02:30:29;;;;;;;;;0.00;0.00;;;;;12.20;100.00;100367.19;5094503;27;45238;-76
2022/12/29 02:33:35;;;;;;;;;0.00;0.00;;;;;12.03;100.00;100360.03;5106463;27;45348;-76
2022/12/29 02:36:07;;;;;;;;;0.00;0.00;;;;;11.99;100.00;100361.38;5095509;27;45587;-76
2022/12/29 02:39:11;;;;;;;;;2.33;0.00;;;;;12.03;100.00;100354.59;5106609;27;45519;-76
2022/12/29 02:41:52;;;;;;;;;0.00;0.00;;;;;11.96;100.00;100345.41;5069051;28;45629;-76
2022/12/29 02:45:02;;;;;;;;;1.00;0.00;;;;;11.88;100.00;100348.09;5104481;27;45259;-76
2022/12/29 02:48:09;;;;;;;;;0.00;0.00;;;;;11.94;100.00;100350.16;5104133;27;45171;-76
2022/12/29 02:50:43;;;;;;;;;0.00;0.00;;;;;11.88;100.00;100362.56;5073443;27;46448;-76
2022/12/29 02:53:15;;;;;;;;;0.67;0.00;;;;;11.97;100.00;100356.13;5105872;27;45374;-76
2022/12/29 02:55:51;;;;;;;;;0.00;0.00;;;;;11.91;100.00;100350.47;5105899;27;45327;-76
2022/12/29 02:58:20;;;;;;;;;0.00;0.00;;;;;11.89;100.00;100339.78;5088052;27;45562;-76
2022/12/29 03:01:04;;;;;;;;;1.00;1.00;;;;;11.99;100.00;100353.22;5086493;27;47023;-76
2022/12/29 03:03:39;;;;;;;;;0.00;0.00;;;;;11.98;100.00;100352.34;5087376;27;45347;-76
2022/12/29 03:06:29;;;;;;;;;0.00;0.00;;;;;11.97;100.00;100358.00;5087570;27;45368;-76
2022/12/29 03:09:13;;;;;;;;;0.00;0.00;;;;;12.03;100.00;100354.59;5106200;27;45354;-76
2022/12/29 03:12:09;;;;;;;;;0.33;0.33;;;;;12.00;100.00;100346.75;5087297;27;48018;-76
2022/12/29 03:17:58;;;;;;;;;0.00;0.00;;;;;12.03;100.00;100340.97;5106085;27;45290;-77
2022/12/29 03:20:31;;;;;;;;;0.00;0.00;;;;;11.91;100.00;100337.72;5098430;27;45577;-76
2022/12/29 03:23:01;;;;;;;;;1.33;0.00;;;;;11.93;100.00;100364.78;5085014;27;46602;-76
2022/12/29 03:25:35;;;;;;;;;0.00;0.00;;;;;11.94;100.00;100367.34;5066855;28;45250;-76
2022/12/29 03:28:09;;;;;;;;;0.00;0.00;;;;;11.82;100.00;100354.22;5085120;27;45337;-76
2022/12/29 03:30:37;;;;;;;;;0.00;0.00;;;;;11.78;100.00;100360.97;5085471;27;45229;-76
2022/12/29 03:33:09;;;;;;;;;1.00;1.00;;;;;11.76;100.00;100373.94;5084725;27;45556;-76
2022/12/29 03:35:38;;;;;;;;;0.00;0.00;;;;;11.71;100.00;100344.44;5078641;27;45272;-76
2022/12/29 03:38:12;;;;;;;;;0.00;0.00;;;;;11.70;100.00;100370.78;5086035;27;45457;-76
2022/12/29 03:40:48;;;;;;;;;1.00;1.00;;;;;11.65;100.00;100377.75;5085173;27;45355;-77
2022/12/29 03:43:15;;;;;;;;;0.00;0.00;;;;;11.64;100.00;100371.47;5074390;27;46866;-77
2022/12/29 03:45:41;;;;;;;;;0.00;0.00;;;;;11.63;100.00;100374.34;5085494;27;45546;-76
2022/12/29 03:48:06;;;;;;;;;0.00;0.00;;;;;11.59;100.00;100376.56;5085188;27;45459;-77
2022/12/29 03:50:31;;;;;;;;;1.67;1.00;;;;;11.66;100.00;100358.56;5081520;27;45445;-76
2022/12/29 03:52:57;;;;;;;;;2.00;0.00;;;;;11.67;100.00;100365.69;5104220;27;45366;-76
2022/12/29 03:55:22;;;;;;;;;1.00;1.00;;;;;11.64;100.00;100376.91;5086925;27;45357;-76
2022/12/29 03:57:48;;;;;;;;;0.33;0.33;;;;;11.64;100.00;100374.19;5077944;28;45318;-77
2022/12/29 04:00:13;;;;;;;;;0.33;0.00;;;;;11.64;100.00;100379.63;5085176;28;45407;-76
2022/12/29 04:02:39;;;;;;;;;0.00;0.00;;;;;11.65;100.00;100378.59;5084850;28;46295;-76
2022/12/29 04:05:05;;;;;;;;;0.33;0.33;;;;;11.58;100.00;100382.16;5083306;27;45423;-76
2022/12/29 04:07:30;;;;;;;;;1.33;0.00;;;;;11.55;100.00;100394.19;5066165;28;45199;-76
2022/12/29 04:09:56;;;;;;;;;1.00;0.00;;;;;11.59;100.00;100395.59;5066653;27;45250;-77
2022/12/29 04:12:21;;;;;;;;;0.33;0.33;;;;;11.59;100.00;100386.59;5066166;28;46181;-77
2022/12/29 04:14:46;;;;;;;;;2.00;0.00;;;;;11.60;100.00;100394.59;5084446;28;45132;-77
2022/12/29 04:17:12;;;;;;;;;2.00;0.33;;;;;11.58;100.00;100384.88;5066767;28;45436;-76
2022/12/29 04:19:37;;;;;;;;;0.67;0.00;;;;;11.57;100.00;100386.75;5094032;27;45192;-77
2022/12/29 04:22:02;;;;;;;;;1.00;0.00;;;;;11.60;100.00;100402.75;5084189;28;45404;-76
2022/12/29 04:24:28;;;;;;;;;0.00;0.00;;;;;11.54;100.00;100395.22;5084394;28;45343;-77
2022/12/29 04:26:53;;;;;;;;;0.00;0.00;;;;;11.61;100.00;100412.63;5084654;28;45347;-77
2022/12/29 04:29:19;;;;;;;;;0.00;0.00;;;;;11.54;100.00;100405.28;5084832;27;45731;-77
2022/12/29 04:31:44;;;;;;;;;1.00;1.00;;;;;11.51;100.00;100416.47;5084008;27;46360;-77
2022/12/29 04:34:09;;;;;;;;;3.00;0.00;;;;;11.53;100.00;100412.59;5083790;28;45356;-77
2022/12/29 04:36:35;;;;;;;;;0.00;0.00;;;;;11.59;100.00;100417.38;5084179;28;45732;-77
2022/12/29 04:39:00;;;;;;;;;0.00;0.00;;;;;11.60;100.00;100410.91;5084635;28;45256;-75
2022/12/29 04:41:26;;;;;;;;;2.00;0.33;;;;;11.66;100.00;100406.69;5083639;28;45325;-76
2022/12/29 04:43:51;;;;;;;;;2.67;0.67;;;;;11.70;100.00;100432.53;5085846;27;45393;-76
2022/12/29 04:46:16;;;;;;;;;0.00;0.00;;;;;11.65;100.00;100422.16;5086227;27;45396;-76
2022/12/29 04:48:42;;;;;;;;;0.00;0.00;;;;;11.74;100.00;100427.63;5086349;27;45360;-76
2022/12/29 04:51:07;;;;;;;;;1.00;1.00;;;;;11.71;100.00;100423.34;5103699;27;46280;-76
2022/12/29 04:53:32;;;;;;;;;1.00;1.00;;;;;11.79;100.00;100431.59;5104187;27;45375;-77
2022/12/29 04:55:58;;;;;;;;;0.33;0.33;;;;;11.83;100.00;100424.81;5104621;27;45222;-76
2022/12/29 04:58:23;;;;;;;;;7.33;7.33;;;;;11.83;100.00;100421.25;5090294;27;45230;-79
2022/12/29 05:00:50;;;;;;;;;0.67;0.00;;;;;11.90;100.00;100425.00;5083436;27;45230;-75
2022/12/29 05:03:16;;;;;;;;;0.00;0.00;;;;;11.89;100.00;100434.19;5082595;28;45234;-77
2022/12/29 05:05:41;;;;;;;;;1.00;1.00;;;;;11.76;100.00;100431.09;5083466;28;45274;-76
2022/12/29 05:08:06;;;;;;;;;3.00;1.00;;;;;11.85;100.00;100444.53;5083672;27;45574;-77
2022/12/29 05:10:32;;;;;;;;;0.33;0.00;;;;;11.84;100.00;100441.97;5083322;28;45385;-77
2022/12/29 05:12:58;;;;;;;;;2.33;0.00;;;;;11.89;100.00;100440.50;5075364;28;45332;-77
2022/12/29 05:15:23;;;;;;;;;0.00;0.00;;;;;11.89;100.00;100445.09;5083823;28;45400;-77
2022/12/29 05:17:48;;;;;;;;;0.67;0.00;;;;;11.83;100.00;100434.84;5084015;28;45724;-77
2022/12/29 05:20:14;;;;;;;;;1.67;0.00;;;;;11.84;100.00;100433.81;5091187;27;46507;-78
2022/12/29 05:22:39;;;;;;;;;0.00;0.00;;;;;11.80;100.00;100435.16;5083139;27;45314;-77
2022/12/29 05:25:05;;;;;;;;;1.67;1.00;;;;;11.73;100.00;100444.97;5083351;28;45277;-77
2022/12/29 05:27:30;;;;;;;;;0.00;0.00;;;;;11.62;100.00;100444.22;5084014;27;45589;-77
2022/12/29 05:29:56;;;;;;;;;3.00;1.33;;;;;11.70;100.00;100440.69;5083135;28;45408;-76
2022/12/29 05:32:21;;;;;;;;;0.00;0.00;;;;;11.66;100.00;100445.63;5064924;28;45308;-77
2022/12/29 05:34:47;;;;;;;;;0.00;0.00;;;;;11.63;100.00;100461.41;5084045;27;45419;-77
2022/12/29 05:37:12;;;;;;;;;0.33;0.00;;;;;11.64;100.00;100463.97;5073335;28;45452;-77
2022/12/29 05:39:37;;;;;;;;;2.00;2.00;;;;;11.65;100.00;100462.97;5078455;28;48099;-77
2022/12/29 05:42:03;;;;;;;;;1.33;0.00;;;;;11.62;100.00;100457.84;5095188;27;45284;-77
2022/12/29 05:44:28;;;;;;;;;0.00;0.00;;;;;11.60;100.00;100464.47;5084608;27;45282;-78
2022/12/29 05:46:53;;;;;;;;;0.67;0.67;;;;;11.62;100.00;100465.16;5104081;27;45214;-76
2022/12/29 05:49:19;;;;;;;;;3.00;2.00;;;;;11.59;100.00;100465.50;5083717;27;47112;-77
2022/12/29 05:51:44;;;;;;;;;1.00;1.00;;;;;11.58;100.00;100464.63;5103280;27;45230;-77
2022/12/29 05:54:10;;;;;;;;;2.00;1.00;;;;;11.55;100.00;100462.22;5103700;27;45458;-79
2022/12/29 05:56:35;;;;;;;;;3.67;1.00;;;;;11.58;100.00;100453.75;5106579;27;45176;-80
2022/12/29 05:59:01;;;;;;;;;2.00;1.00;;;;;11.47;100.00;100467.63;5083405;28;47167;-79
2022/12/29 06:01:26;;;;;;;;;2.33;1.00;;;;;11.50;100.00;100471.88;5097364;27;45326;-80
2022/12/29 06:03:51;;;;;;;;;2.00;0.00;;;;;11.49;100.00;100465.59;5106509;27;45299;-82
2022/12/29 06:06:17;;;;;;;;;0.33;0.33;;;;;11.52;100.00;100486.19;5088695;27;45475;-81
2022/12/29 06:08:42;;;;;;;;;1.00;1.00;;;;;11.53;100.00;100474.31;5106460;27;45625;-83
2022/12/29 06:11:08;;;;;;;;;2.33;0.33;;;;;11.54;100.00;100487.72;5076297;28;45585;-80
2022/12/29 06:13:33;;;;;;;;;3.00;2.00;;;;;11.53;100.00;100485.19;5065338;28;45259;-80
2022/12/29 06:15:58;;;;;;;;;2.00;1.00;;;;;11.49;100.00;100487.34;5066118;28;45478;-80
2022/12/29 06:18:24;;;;;;;;;2.00;0.67;;;;;11.51;100.00;100495.38;5101877;27;45326;-80
2022/12/29 06:20:49;;;;;;;;;1.33;1.33;;;;;11.45;100.00;100488.72;5092765;27;45313;-79
2022/12/29 06:23:16;;;;;;;;;1.00;1.00;;;;;11.51;100.00;100496.22;5064489;28;45325;-80
2022/12/29 06:25:41;;;;;;;;;1.00;1.00;;;;;11.40;100.00;100501.91;5065208;28;46599;-80
2022/12/29 06:28:07;;;;;;;;;3.00;0.00;;;;;11.36;100.00;100508.69;5088714;27;45361;-80
2022/12/29 06:30:32;;;;;;;;;2.00;0.00;;;;;11.42;100.00;100509.91;5087101;27;45354;-80
2022/12/29 06:32:59;;;;;;;;;2.33;2.00;;;;;11.38;100.00;100514.84;5104948;27;45203;-80
2022/12/29 06:35:25;;;;;;;;;1.00;1.00;;;;;11.31;100.00;100516.50;5107157;27;45389;-79
2022/12/29 06:37:51;;;;;;;;;5.33;3.00;;;;;11.31;100.00;100509.19;5103360;27;45296;-79
2022/12/29 06:40:16;;;;;;;;;3.00;0.00;;;;;11.34;100.00;100527.03;5087101;27;45363;-80
2022/12/29 06:42:42;;;;;;;;;2.00;2.00;;;;;11.35;100.00;100527.88;5086634;27;45534;-81
2022/12/29 06:45:07;;;;;;;;;6.33;2.00;;;;;11.33;100.00;100530.75;5087415;27;45180;-80
2022/12/29 06:47:33;;;;;;;;;2.00;2.00;;;;;11.35;100.00;100545.06;5086218;27;46291;-80
2022/12/29 06:49:59;;;;;;;;;4.00;1.67;;;;;11.34;100.00;100548.78;5096613;27;45279;-79
2022/12/29 06:52:25;;;;;;;;;1.67;1.67;;;;;11.37;100.00;100558.50;5092110;27;45319;-78
2022/12/29 06:54:50;;;;;;;;;2.00;0.00;;;;;11.28;100.00;100544.00;5095242;27;45381;-78
2022/12/29 06:57:15;;;;;;;;;6.00;1.67;;;;;11.37;100.00;100551.22;5070965;28;47037;-78
2022/12/29 06:59:41;;;;;;;;;1.67;0.00;;;;;11.36;100.00;100552.22;5085725;27;45354;-77
2022/12/29 07:02:06;;;;;;;;;0.00;0.00;;;;;11.36;100.00;100562.25;5084607;27;45333;-77
2022/12/29 07:04:31;;;;;;;;;1.00;1.00;;;;;11.40;100.00;100567.19;5106283;27;45434;-79
2022/12/29 07:06:57;;;;;;;;;3.33;1.00;;;;;11.41;100.00;100558.03;5087912;27;46447;-78
2022/12/29 07:09:22;;;;;;;;;3.00;1.67;;;;;11.39;100.00;100561.94;5077705;27;45374;-78
2022/12/29 07:11:47;;;;;;;;;1.00;0.00;;;;;11.36;100.00;100567.69;5088739;27;45324;-76
2022/12/29 07:14:13;;;;;;;;;1.33;0.67;;;;;11.34;100.00;100559.69;5077777;27;45604;-78
2022/12/29 07:16:38;;;;;;;;;0.00;0.00;;;;;11.29;100.00;100552.00;5088206;27;46265;-78
2022/12/29 07:19:04;;;;;;;;;1.00;1.00;;;;;11.36;100.00;100554.09;5075960;27;45258;-78
2022/12/29 07:21:30;;;;;;;;;0.33;0.00;;;;;11.31;100.00;100562.72;5069966;28;45620;-79
2022/12/29 07:23:55;;;;;;;;;4.00;2.33;;;;;11.38;100.00;100565.66;5085675;28;45306;-78
2022/12/29 07:26:21;;;;;;;;;2.00;1.00;;;;;11.27;100.00;100561.31;5085100;28;45689;-77
2022/12/29 07:28:46;;;;;;;;;1.00;0.00;;;;;11.32;100.00;100567.16;5085136;27;45402;-79
2022/12/29 07:31:18;;;;;;;;;1.33;1.33;;;;;11.31;100.00;100581.75;5085045;27;45275;-79
2022/12/29 07:33:44;;;;;;;;;2.00;0.00;;;;;11.28;100.00;100577.47;5084924;28;45211;-79
2022/12/29 07:36:11;;;;;;;;;2.33;1.00;;;;;11.35;100.00;100583.16;5084648;27;46272;-79
2022/12/29 07:38:36;;;;;;;;;1.00;1.00;;;;;11.36;100.00;100584.00;5083360;28;45234;-79
2022/12/29 07:41:02;;;;;;;;;2.00;2.00;;;;;11.36;100.00;100594.88;5084684;27;45648;-80
2022/12/29 07:43:27;;;;;;;;;3.67;2.00;;;;;11.31;100.00;100595.38;5087520;27;45404;-79
2022/12/29 07:45:53;;;;;;;;;2.33;1.00;;;;;11.31;100.00;100592.66;5087164;27;46560;-77
2022/12/29 07:48:18;;;;;;;;;1.00;1.00;;;;;11.32;100.00;100611.50;5084818;28;45377;-78
2022/12/29 07:50:43;;;;;;;;;0.00;0.00;;;;;11.29;100.00;100609.13;5088230;27;45912;-78
2022/12/29 07:53:09;;;;;;;;;3.00;2.00;;;;;11.20;100.00;100601.03;5105606;27;45423;-77
2022/12/29 07:55:34;;;;;;;;;4.00;1.00;;;;;11.32;100.00;100611.50;5086417;27;47151;-78
2022/12/29 07:58:00;;;;;;;;;3.00;0.00;;;;;11.35;100.00;100620.38;5075291;28;45352;-78
2022/12/29 08:00:25;;;;;;;;;2.67;0.00;;;;;11.25;100.00;100615.88;5084607;28;45304;-80
2022/12/29 08:02:50;;;;;;;;;0.00;0.00;;;;;11.21;100.00;100635.38;5066827;28;45354;-78
2022/12/29 08:05:16;;;;;;;;;1.00;0.00;;;;;11.28;100.00;100637.31;5084075;28;45774;-79
2022/12/29 08:07:45;;;;;;;;;2.67;0.00;;;;;11.33;100.00;100623.25;5084607;28;45370;-78
2022/12/29 08:10:12;;;;;;;;;4.00;1.00;;;;;11.33;100.00;100636.84;5084181;28;45211;-78
2022/12/29 08:12:38;;;;;;;;;1.00;1.00;;;;;11.35;100.00;100640.28;5084825;27;45350;-79
2022/12/29 08:15:04;;;;;;;;;4.00;1.00;;;;;11.27;100.00;100626.59;5083958;28;46957;-78
2022/12/29 08:17:29;;;;;;;;;3.33;1.67;;;;;11.36;100.00;100641.13;5076137;27;45325;-79
2022/12/29 08:19:55;;;;;;;;;2.33;1.67;;;;;11.39;100.00;100644.41;5094675;27;45282;-79
2022/12/29 08:22:20;;;;;;;;;3.67;2.00;;;;;11.30;100.00;100646.19;5084587;28;45293;-79
2022/12/29 08:24:45;;;;;;;;;0.00;0.00;;;;;11.34;100.00;100660.31;5084118;28;46546;-79
2022/12/29 08:27:11;;;;;;;;;3.00;3.00;;;;;11.38;100.00;100652.72;5065332;28;45372;-79
2022/12/29 08:29:36;;;;;;;;;2.00;1.33;;;;;11.36;100.00;100646.56;5084070;28;45251;-79
2022/12/29 08:32:01;;;;;;;;;0.67;0.67;;;;;11.40;100.00;100669.72;5084646;28;45247;-78
2022/12/29 08:34:27;;;;;;;;;6.33;2.00;;;;;11.36;100.00;100663.75;5083904;28;45366;-79
2022/12/29 08:36:52;;;;;;;;;1.00;1.00;;;;;11.18;100.00;100663.72;5084316;27;45293;-78
2022/12/29 08:39:18;;;;;;;;;2.00;1.67;;;;;11.18;100.00;100669.16;5084026;28;45267;-80
2022/12/29 08:41:43;;;;;;;;;2.67;2.00;;;;;11.27;100.00;100675.53;5084329;28;45400;-80
2022/12/29 08:44:08;;;;;;;;;1.00;1.00;;;;;11.31;100.00;100685.97;5083070;27;48212;-80
2022/12/29 08:46:34;;;;;;;;;3.00;1.00;;;;;11.31;100.00;100688.69;5093779;27;45255;-80
2022/12/29 08:48:59;;;;;;;;;3.00;1.33;;;;;11.31;100.00;100691.41;5083575;27;45275;-79
2022/12/29 08:51:24;;;;;;;;;1.00;1.00;;;;;11.35;100.00;100702.84;5074985;27;45415;-79
2022/12/29 08:53:50;;;;;;;;;4.33;1.00;;;;;11.39;100.00;100697.94;5071964;27;47591;-79
2022/12/29 08:56:16;;;;;;;;;3.00;2.00;;;;;11.41;100.00;100702.22;5104355;27;45163;-79
2022/12/29 08:58:41;;;;;;;;;1.33;1.00;;;;;11.38;100.00;100713.41;5088177;27;45253;-79
2022/12/29 09:01:07;;;;;;;;;2.67;2.67;;;;;11.36;100.00;100706.41;5084246;28;45417;-79
2022/12/29 09:03:32;;;;;;;;;4.33;2.00;;;;;11.41;100.00;100707.66;5082126;27;47438;-79
2022/12/29 09:05:58;;;;;;;;;3.00;1.00;;;;;11.50;100.00;100709.44;5083665;27;45222;-79
2022/12/29 09:08:23;;;;;;;;;2.33;1.00;;;;;11.48;100.00;100707.88;5078987;27;45417;-79
2022/12/29 09:10:49;;;;;;;;;4.33;1.00;;;;;11.52;100.00;100715.59;5075083;27;45370;-79
2022/12/29 09:13:15;;;;;;;;;5.33;2.67;;;;;11.53;100.00;100720.03;5103744;27;45846;-79
2022/12/29 09:15:41;;;;;;;;;3.67;1.33;;;;;11.52;100.00;100720.19;5104072;27;45274;-79
2022/12/29 09:18:09;;;;;;;;;3.00;2.00;;;;;11.61;100.00;100713.81;5071833;27;46632;-79
2022/12/29 09:20:34;;;;;;;;;4.33;2.00;;;;;11.61;100.00;100716.53;5094046;27;45242;-79
2022/12/29 09:23:00;;;;;;;;;5.00;2.00;;;;;11.69;100.00;100736.50;5083106;28;45380;-78
2022/12/29 09:25:25;;;;;;;;;2.00;2.00;;;;;11.60;100.00;100734.72;5064967;28;45452;-78
2022/12/29 09:27:53;;;;;;;;;3.33;2.00;;;;;11.65;100.00;100743.28;5083722;27;45227;-78
2022/12/29 09:30:20;;;;;;;;;1.00;0.33;;;;;11.64;100.00;100730.66;5065164;28;45287;-78
2022/12/29 09:32:46;;;;;;;;;5.33;1.00;;;;;11.65;100.00;100748.72;5078117;28;46820;-78
2022/12/29 09:35:13;;;;;;;;;5.00;2.33;;;;;11.63;100.00;100739.84;5082876;27;45337;-78
2022/12/29 09:37:38;;;;;;;;;3.67;0.00;;;;;11.71;100.00;100747.22;5082884;27;45211;-79
2022/12/29 09:40:05;;;;;;;;;4.67;2.00;;;;;11.69;100.00;100750.09;5083143;28;45451;-79
2022/12/29 09:42:37;;;;;;;;;1.67;1.00;;;;;11.60;100.00;100753.78;5082335;28;45483;-79
2022/12/29 09:45:12;;;;;;;;;7.67;1.67;;;;;11.62;100.00;100745.44;5082484;28;45423;-79
2022/12/29 09:47:39;;;;;;;;;1.00;1.00;;;;;11.61;100.00;100747.31;5064499;28;45335;-79
2022/12/29 09:50:10;;;;;;;;;2.00;2.00;;;;;11.70;100.00;100759.97;5083112;28;45248;-79
2022/12/29 09:52:44;;;;;;;;;1.50;0.50;;;;;11.74;100.00;100766.00;5078005;28;47380;-79
2022/12/29 09:55:15;;;;;;;;;3.00;1.67;;;;;11.75;100.00;100769.59;5097155;27;45291;-79
2022/12/29 09:57:52;;;;;;;;;2.67;1.67;;;;;11.71;100.00;100764.41;5094870;27;45219;-79
2022/12/29 10:00:20;;;;;;;;;3.00;1.67;;;;;11.80;100.00;100772.69;5083297;28;45345;-79
2022/12/29 10:02:54;;;;;;;;;5.00;3.33;;;;;11.77;100.00;100773.00;5082657;28;45332;-79
2022/12/29 10:05:56;;;;;;;;;3.67;2.00;;;;;11.79;100.00;100771.84;5090981;27;45324;-79
2022/12/29 10:08:30;;;;;;;;;1.33;1.00;;;;;11.94;100.00;100778.44;5106873;27;45216;-79
2022/12/29 10:11:05;;;;;;;;;5.00;2.00;;;;;11.87;100.00;100771.06;5088972;27;45545;-79
2022/12/29 10:13:58;;;;;;;;;3.00;1.67;;;;;11.94;100.00;100783.88;5087862;27;45409;-79
2022/12/29 10:16:51;;;;;;;;;6.33;3.67;;;;;11.91;100.00;100777.88;5087850;27;45591;-79
2022/12/29 10:19:53;;;;;;;;;4.00;3.67;;;;;11.94;100.00;100783.03;5087988;27;45324;-79
2022/12/29 10:22:48;;;;;;;;;2.33;1.00;;;;;11.93;100.00;100784.03;5086658;28;45557;-79
2022/12/29 10:25:21;;;;;;;;;6.00;3.00;;;;;11.95;100.00;100784.75;5081771;27;45464;-79
2022/12/29 10:27:49;;;;;;;;;4.33;3.00;;;;;11.88;100.00;100780.94;5087206;27;45152;-79
2022/12/29 10:30:15;;;;;;;;;3.33;1.67;;;;;11.76;100.00;100785.78;5105229;27;45396;-79
2022/12/29 10:32:55;;;;;;;;;3.67;1.00;;;;;11.81;100.00;100775.28;5106805;27;45366;-78
2022/12/29 10:35:23;;;;;;;;;5.33;2.33;;;;;11.77;100.00;100773.00;5105799;27;45302;-79
2022/12/29 10:38:26;;;;;;;;;2.00;2.00;;;;;11.75;100.00;100777.75;5105996;27;45385;-80
2022/12/29 10:41:20;;;;;;;;;3.00;3.00;;;;;11.69;100.00;100771.00;5087887;27;45242;-79
2022/12/29 10:43:50;;;;;;;;;4.00;2.33;;;;;11.70;100.00;100770.00;5105886;27;45352;-78
2022/12/29 10:46:22;;;;;;;;;3.00;2.00;;;;;11.68;100.00;100764.75;5084247;28;47014;-78
2022/12/29 10:48:48;;;;;;;;;6.67;2.00;;;;;11.67;100.00;100778.50;5085325;28;45262;-80
2022/12/29 10:51:25;;;;;;;;;3.00;3.00;;;;;11.60;100.00;100780.13;5075807;27;45426;-78
2022/12/29 10:54:14;;;;;;;;;3.33;2.00;;;;;11.71;100.00;100775.31;5106560;27;45345;-78
2022/12/29 10:56:45;;;;;;;;;3.00;3.00;;;;;11.85;100.00;100773.06;5078339;27;48517;-78
2022/12/29 10:59:19;;;;;;;;;2.33;1.00;;;;;11.79;100.00;100760.94;5085740;28;45376;-79
2022/12/29 11:02:11;;;;;;;;;4.00;3.00;;;;;11.86;100.00;100770.19;5067176;28;45480;-79
2022/12/29 11:04:52;;;;;;;;;3.67;3.67;;;;;11.88;100.00;100772.78;5067641;28;45565;-79
2022/12/29 11:07:20;;;;;;;;;3.00;2.00;;;;;11.81;100.00;100780.72;5093226;27;45431;-79
2022/12/29 11:09:46;;;;;;;;;1.33;1.00;;;;;11.77;100.00;100781.16;5087044;27;45240;-79
2022/12/29 11:12:21;;;;;;;;;3.33;2.00;;;;;11.67;100.00;100776.63;5106277;27;45235;-79
2022/12/29 11:14:47;;;;;;;;;2.33;1.00;;;;;11.79;100.00;100780.00;5106815;27;45218;-79
2022/12/29 11:17:17;;;;;;;;;7.00;4.00;;;;;11.85;100.00;100784.81;5106428;27;46637;-80
2022/12/29 11:19:42;;;;;;;;;2.00;2.00;;;;;11.87;100.00;100769.19;5103726;27;45402;-79
2022/12/29 11:22:22;;;;;;;;;3.00;2.00;;;;;11.86;100.00;100777.50;5105707;27;45235;-79
2022/12/29 11:24:49;;;;;;;;;2.00;2.00;;;;;11.90;100.00;100763.44;5106046;27;45239;-79
2022/12/29 11:27:19;;;;;;;;;6.00;3.00;;;;;12.01;100.00;100778.66;5105854;27;46381;-80
2022/12/29 11:29:45;;;;;;;;;4.67;3.00;;;;;12.09;100.00;100773.28;5105540;27;45297;-79
2022/12/29 11:32:12;;;;;;;;;1.33;1.00;;;;;12.12;100.00;100767.53;5105355;27;45262;-80
2022/12/29 11:34:37;;;;;;;;;3.00;1.67;;;;;12.13;100.00;100774.69;5091987;27;45231;-79
2022/12/29 11:37:13;;;;;;;;;4.00;3.00;;;;;12.21;100.00;100777.47;5092635;27;45580;-79
2022/12/29 11:39:50;;;;;;;;;4.33;1.33;;;;;12.23;100.00;100783.63;5084859;28;45641;-79
2022/12/29 11:42:20;;;;;;;;;3.00;2.00;;;;;12.36;100.00;100775.88;5080041;27;45381;-78
2022/12/29 11:44:50;;;;;;;;;3.33;3.33;;;;;12.35;100.00;100779.63;5066716;28;45428;-82
2022/12/29 11:47:30;;;;;;;;;2.33;2.33;;;;;12.36;100.00;100775.88;5082797;28;47248;-78
2022/12/29 11:50:02;;;;;;;;;5.67;3.33;;;;;12.30;100.00;100781.97;5077880;27;45310;-80
2022/12/29 11:52:34;;;;;;;;;11.33;3.00;;;;;12.12;100.00;100762.09;5082631;28;45506;-79
2022/12/29 11:55:04;;;;;;;;;2.67;2.67;;;;;12.16;100.00;100768.06;5097161;27;45340;-79